sensor_id;sensor_type;location;lat;lon;timestamp;P1;durP1;ratioP1;P2;durP2;ratioP2
22298;SDS011;11317;51.072;17.036;2023-02-28T00:01:17;23.23;;;7.93;;
22298;SDS011;11317;51.072;17.036;2023-02-28T00:03:43;20.23;;;7.63;;
22298;SDS011;11317;51.072;17.036;2023-02-28T00:06:09;14.90;;;7.97;;
22298;SDS011;11317;51.072;17.036;2023-02-28T00:08:36;15.98;;;7.00;;
22298;SDS011;11317;51.072;17.036;2023-02-28T00:11:03;17.35;;;7.45;;
22298;SDS011;11317;51.072;17.036;2023-02-28T00:13:31;20.00;;;6.93;;
22298;SDS011;11317;51.072;17.036;2023-02-28T00:16:00;17.80;;;7.75;;
22298;SDS011;11317;51.072;17.036;2023-02-28T00:18:27;14.88;;;7.95;;
22298;SDS011;11317;51.072;17.036;2023-02-28T00:20:53;18.52;;;7.55;;
22298;SDS011;11317;51.072;17.036;2023-02-28T00:23:19;17.73;;;6.85;;
22298;SDS011;11317;51.072;17.036;2023-02-28T00:25:45;24.25;;;8.23;;
22298;SDS011;11317;51.072;17.036;2023-02-28T00:28:12;24.70;;;7.50;;
22298;SDS011;11317;51.072;17.036;2023-02-28T00:30:39;14.50;;;7.00;;
22298;SDS011;11317;51.072;17.036;2023-02-28T00:33:05;17.65;;;5.88;;
22298;SDS011;11317;51.072;17.036;2023-02-28T00:35:31;11.77;;;6.15;;
22298;SDS011;11317;51.072;17.036;2023-02-28T00:37:58;12.75;;;5.93;;
22298;SDS011;11317;51.072;17.036;2023-02-28T00:40:24;16.33;;;6.68;;
22298;SDS011;11317;51.072;17.036;2023-02-28T00:42:50;18.23;;;6.72;;
22298;SDS011;11317;51.072;17.036;2023-02-28T00:45:16;14.55;;;6.05;;
22298;SDS011;11317;51.072;17.036;2023-02-28T00:47:42;16.42;;;6.30;;
22298;SDS011;11317;51.072;17.036;2023-02-28T00:50:08;15.13;;;6.45;;
22298;SDS011;11317;51.072;17.036;2023-02-28T00:52:35;13.80;;;7.13;;
22298;SDS011;11317;51.072;17.036;2023-02-28T00:55:01;11.77;;;6.07;;
22298;SDS011;11317;51.072;17.036;2023-02-28T00:57:26;13.15;;;5.40;;
22298;SDS011;11317;51.072;17.036;2023-02-28T00:59:53;14.80;;;6.75;;
22298;SDS011;11317;51.072;17.036;2023-02-28T01:02:22;13.60;;;6.10;;
22298;SDS011;11317;51.072;17.036;2023-02-28T01:04:48;17.98;;;6.25;;
22298;SDS011;11317;51.072;17.036;2023-02-28T01:07:14;15.70;;;5.97;;
22298;SDS011;11317;51.072;17.036;2023-02-28T01:09:40;11.77;;;5.68;;
22298;SDS011;11317;51.072;17.036;2023-02-28T01:12:07;14.70;;;7.13;;
22298;SDS011;11317;51.072;17.036;2023-02-28T01:14:34;15.75;;;7.55;;
22298;SDS011;11317;51.072;17.036;2023-02-28T01:17:00;16.80;;;6.75;;
22298;SDS011;11317;51.072;17.036;2023-02-28T01:19:27;13.15;;;7.05;;
22298;SDS011;11317;51.072;17.036;2023-02-28T01:21:52;13.10;;;6.63;;
22298;SDS011;11317;51.072;17.036;2023-02-28T01:24:21;19.65;;;7.07;;
22298;SDS011;11317;51.072;17.036;2023-02-28T01:26:47;18.38;;;7.35;;
22298;SDS011;11317;51.072;17.036;2023-02-28T01:29:13;15.88;;;7.05;;
22298;SDS011;11317;51.072;17.036;2023-02-28T01:31:40;15.40;;;7.15;;
22298;SDS011;11317;51.072;17.036;2023-02-28T01:34:06;19.15;;;6.85;;
22298;SDS011;11317;51.072;17.036;2023-02-28T01:36:32;14.75;;;7.43;;
22298;SDS011;11317;51.072;17.036;2023-02-28T01:38:58;14.63;;;7.28;;
22298;SDS011;11317;51.072;17.036;2023-02-28T01:41:26;16.90;;;7.25;;
22298;SDS011;11317;51.072;17.036;2023-02-28T01:43:55;16.73;;;5.70;;
22298;SDS011;11317;51.072;17.036;2023-02-28T01:46:24;20.63;;;7.28;;
22298;SDS011;11317;51.072;17.036;2023-02-28T01:49:02;17.25;;;7.80;;
22298;SDS011;11317;51.072;17.036;2023-02-28T01:51:43;15.93;;;7.22;;
22298;SDS011;11317;51.072;17.036;2023-02-28T01:54:16;15.77;;;7.15;;
22298;SDS011;11317;51.072;17.036;2023-02-28T01:56:49;18.45;;;6.97;;
22298;SDS011;11317;51.072;17.036;2023-02-28T01:59:22;13.98;;;6.38;;
22298;SDS011;11317;51.072;17.036;2023-02-28T02:01:55;16.90;;;6.55;;
22298;SDS011;11317;51.072;17.036;2023-02-28T02:04:21;16.45;;;7.05;;
22298;SDS011;11317;51.072;17.036;2023-02-28T02:06:51;14.13;;;6.75;;
22298;SDS011;11317;51.072;17.036;2023-02-28T02:09:17;16.75;;;7.00;;
22298;SDS011;11317;51.072;17.036;2023-02-28T02:11:43;15.80;;;7.00;;
22298;SDS011;11317;51.072;17.036;2023-02-28T02:19:46;15.15;;;7.25;;
22298;SDS011;11317;51.072;17.036;2023-02-28T02:25:40;16.60;;;6.53;;
22298;SDS011;11317;51.072;17.036;2023-02-28T02:37:11;19.10;;;7.90;;
22298;SDS011;11317;51.072;17.036;2023-02-28T02:39:54;14.60;;;7.43;;
22298;SDS011;11317;51.072;17.036;2023-02-28T02:42:27;20.45;;;7.35;;
22298;SDS011;11317;51.072;17.036;2023-02-28T02:47:40;18.95;;;7.63;;
22298;SDS011;11317;51.072;17.036;2023-02-28T02:50:08;19.33;;;7.32;;
22298;SDS011;11317;51.072;17.036;2023-02-28T02:52:42;20.50;;;8.25;;
22298;SDS011;11317;51.072;17.036;2023-02-28T02:55:15;22.70;;;9.00;;
22298;SDS011;11317;51.072;17.036;2023-02-28T02:57:47;17.95;;;8.18;;
22298;SDS011;11317;51.072;17.036;2023-02-28T03:00:26;15.90;;;7.57;;
22298;SDS011;11317;51.072;17.036;2023-02-28T03:02:59;17.95;;;8.27;;
22298;SDS011;11317;51.072;17.036;2023-02-28T03:05:31;18.98;;;7.88;;
22298;SDS011;11317;51.072;17.036;2023-02-28T03:08:04;16.85;;;7.55;;
22298;SDS011;11317;51.072;17.036;2023-02-28T03:10:34;17.08;;;6.80;;
22298;SDS011;11317;51.072;17.036;2023-02-28T03:13:07;17.50;;;7.07;;
22298;SDS011;11317;51.072;17.036;2023-02-28T03:15:47;16.40;;;8.10;;
22298;SDS011;11317;51.072;17.036;2023-02-28T03:23:56;20.50;;;7.93;;
22298;SDS011;11317;51.072;17.036;2023-02-28T03:26:26;20.95;;;8.02;;
22298;SDS011;11317;51.072;17.036;2023-02-28T03:33:59;14.55;;;6.93;;
22298;SDS011;11317;51.072;17.036;2023-02-28T03:36:34;23.35;;;8.43;;
22298;SDS011;11317;51.072;17.036;2023-02-28T03:39:09;20.92;;;8.27;;
22298;SDS011;11317;51.072;17.036;2023-02-28T03:41:51;15.75;;;8.57;;
22298;SDS011;11317;51.072;17.036;2023-02-28T03:44:30;19.55;;;8.75;;
22298;SDS011;11317;51.072;17.036;2023-02-28T03:47:01;19.13;;;8.57;;
22298;SDS011;11317;51.072;17.036;2023-02-28T03:52:20;18.85;;;8.82;;
22298;SDS011;11317;51.072;17.036;2023-02-28T03:54:54;20.95;;;8.60;;
22298;SDS011;11317;51.072;17.036;2023-02-28T03:57:32;19.45;;;7.93;;
22298;SDS011;11317;51.072;17.036;2023-02-28T04:00:07;18.70;;;7.93;;
22298;SDS011;11317;51.072;17.036;2023-02-28T04:02:34;20.60;;;7.20;;
22298;SDS011;11317;51.072;17.036;2023-02-28T04:05:00;16.85;;;7.63;;
22298;SDS011;11317;51.072;17.036;2023-02-28T04:07:30;15.65;;;7.32;;
22298;SDS011;11317;51.072;17.036;2023-02-28T04:09:56;18.60;;;8.20;;
22298;SDS011;11317;51.072;17.036;2023-02-28T04:12:23;17.08;;;7.95;;
22298;SDS011;11317;51.072;17.036;2023-02-28T04:14:49;16.02;;;7.85;;
22298;SDS011;11317;51.072;17.036;2023-02-28T04:17:16;19.58;;;7.35;;
22298;SDS011;11317;51.072;17.036;2023-02-28T04:19:42;15.57;;;7.63;;
22298;SDS011;11317;51.072;17.036;2023-02-28T04:22:09;16.33;;;7.47;;
22298;SDS011;11317;51.072;17.036;2023-02-28T04:24:35;20.33;;;8.18;;
22298;SDS011;11317;51.072;17.036;2023-02-28T04:27:01;17.83;;;8.15;;
22298;SDS011;11317;51.072;17.036;2023-02-28T04:29:28;14.45;;;7.05;;
22298;SDS011;11317;51.072;17.036;2023-02-28T04:31:57;19.00;;;7.50;;
22298;SDS011;11317;51.072;17.036;2023-02-28T04:34:24;14.38;;;6.63;;
22298;SDS011;11317;51.072;17.036;2023-02-28T04:36:50;17.08;;;6.68;;
22298;SDS011;11317;51.072;17.036;2023-02-28T04:39:19;14.30;;;6.15;;
22298;SDS011;11317;51.072;17.036;2023-02-28T04:41:49;21.15;;;8.63;;
22298;SDS011;11317;51.072;17.036;2023-02-28T04:44:16;14.05;;;7.43;;
22298;SDS011;11317;51.072;17.036;2023-02-28T04:46:42;22.73;;;8.48;;
22298;SDS011;11317;51.072;17.036;2023-02-28T04:49:11;14.80;;;7.70;;
22298;SDS011;11317;51.072;17.036;2023-02-28T04:51:38;17.17;;;7.15;;
22298;SDS011;11317;51.072;17.036;2023-02-28T04:54:04;17.33;;;8.90;;
22298;SDS011;11317;51.072;17.036;2023-02-28T04:56:30;14.13;;;7.28;;
22298;SDS011;11317;51.072;17.036;2023-02-28T04:58:56;16.27;;;7.55;;
22298;SDS011;11317;51.072;17.036;2023-02-28T05:03:48;20.00;;;9.13;;
22298;SDS011;11317;51.072;17.036;2023-02-28T05:06:15;15.75;;;7.00;;
22298;SDS011;11317;51.072;17.036;2023-02-28T05:08:41;20.42;;;8.25;;
22298;SDS011;11317;51.072;17.036;2023-02-28T05:11:17;19.20;;;7.72;;
22298;SDS011;11317;51.072;17.036;2023-02-28T05:13:48;21.08;;;7.85;;
22298;SDS011;11317;51.072;17.036;2023-02-28T05:16:15;15.95;;;7.43;;
22298;SDS011;11317;51.072;17.036;2023-02-28T05:18:41;19.13;;;7.40;;
22298;SDS011;11317;51.072;17.036;2023-02-28T05:23:54;21.25;;;8.52;;
22298;SDS011;11317;51.072;17.036;2023-02-28T05:26:21;20.27;;;8.60;;
22298;SDS011;11317;51.072;17.036;2023-02-28T05:28:47;17.48;;;9.40;;
22298;SDS011;11317;51.072;17.036;2023-02-28T05:31:13;19.75;;;8.23;;
22298;SDS011;11317;51.072;17.036;2023-02-28T05:33:40;17.92;;;8.00;;
22298;SDS011;11317;51.072;17.036;2023-02-28T05:36:06;16.13;;;7.35;;
22298;SDS011;11317;51.072;17.036;2023-02-28T05:38:32;16.15;;;7.68;;
22298;SDS011;11317;51.072;17.036;2023-02-28T05:40:58;15.38;;;6.78;;
22298;SDS011;11317;51.072;17.036;2023-02-28T05:43:25;13.65;;;6.78;;
22298;SDS011;11317;51.072;17.036;2023-02-28T05:45:51;15.77;;;6.75;;
22298;SDS011;11317;51.072;17.036;2023-02-28T05:48:17;16.15;;;7.43;;
22298;SDS011;11317;51.072;17.036;2023-02-28T05:50:43;20.65;;;7.38;;
22298;SDS011;11317;51.072;17.036;2023-02-28T05:53:11;16.45;;;7.20;;
22298;SDS011;11317;51.072;17.036;2023-02-28T05:55:37;15.10;;;8.38;;
22298;SDS011;11317;51.072;17.036;2023-02-28T05:58:03;19.38;;;7.90;;
22298;SDS011;11317;51.072;17.036;2023-02-28T06:00:29;15.45;;;7.72;;
22298;SDS011;11317;51.072;17.036;2023-02-28T06:02:55;16.70;;;7.55;;
22298;SDS011;11317;51.072;17.036;2023-02-28T06:05:23;17.70;;;7.80;;
22298;SDS011;11317;51.072;17.036;2023-02-28T06:07:49;18.98;;;8.75;;
22298;SDS011;11317;51.072;17.036;2023-02-28T06:10:16;18.33;;;8.23;;
22298;SDS011;11317;51.072;17.036;2023-02-28T06:12:42;17.73;;;7.68;;
22298;SDS011;11317;51.072;17.036;2023-02-28T06:15:12;17.42;;;9.02;;
22298;SDS011;11317;51.072;17.036;2023-02-28T06:17:40;18.85;;;9.57;;
22298;SDS011;11317;51.072;17.036;2023-02-28T06:20:07;22.55;;;10.52;;
22298;SDS011;11317;51.072;17.036;2023-02-28T06:22:34;25.05;;;11.05;;
22298;SDS011;11317;51.072;17.036;2023-02-28T06:25:01;34.72;;;16.17;;
22298;SDS011;11317;51.072;17.036;2023-02-28T06:27:28;40.17;;;13.75;;
22298;SDS011;11317;51.072;17.036;2023-02-28T06:29:54;26.73;;;12.07;;
22298;SDS011;11317;51.072;17.036;2023-02-28T06:32:21;24.45;;;11.73;;
22298;SDS011;11317;51.072;17.036;2023-02-28T06:34:47;22.30;;;9.63;;
22298;SDS011;11317;51.072;17.036;2023-02-28T06:37:14;20.05;;;9.75;;
22298;SDS011;11317;51.072;17.036;2023-02-28T06:39:39;20.35;;;9.20;;
22298;SDS011;11317;51.072;17.036;2023-02-28T06:42:05;16.23;;;7.43;;
22298;SDS011;11317;51.072;17.036;2023-02-28T06:44:31;15.23;;;7.82;;
22298;SDS011;11317;51.072;17.036;2023-02-28T06:47:04;15.70;;;9.07;;
22298;SDS011;11317;51.072;17.036;2023-02-28T06:49:31;19.75;;;8.18;;
22298;SDS011;11317;51.072;17.036;2023-02-28T06:51:59;22.50;;;8.07;;
22298;SDS011;11317;51.072;17.036;2023-02-28T06:54:25;18.27;;;8.15;;
22298;SDS011;11317;51.072;17.036;2023-02-28T06:56:52;17.70;;;7.78;;
22298;SDS011;11317;51.072;17.036;2023-02-28T06:59:20;18.08;;;7.20;;
22298;SDS011;11317;51.072;17.036;2023-02-28T07:01:46;17.77;;;7.72;;
22298;SDS011;11317;51.072;17.036;2023-02-28T07:04:12;17.35;;;7.93;;
22298;SDS011;11317;51.072;17.036;2023-02-28T07:06:38;17.55;;;8.23;;
22298;SDS011;11317;51.072;17.036;2023-02-28T07:09:04;18.02;;;8.02;;
22298;SDS011;11317;51.072;17.036;2023-02-28T07:11:31;15.48;;;7.35;;
22298;SDS011;11317;51.072;17.036;2023-02-28T07:13:57;17.20;;;8.07;;
22298;SDS011;11317;51.072;17.036;2023-02-28T07:16:23;13.68;;;7.30;;
22298;SDS011;11317;51.072;17.036;2023-02-28T07:18:52;15.10;;;8.13;;
22298;SDS011;11317;51.072;17.036;2023-02-28T07:21:18;19.63;;;7.95;;
22298;SDS011;11317;51.072;17.036;2023-02-28T07:23:45;18.23;;;9.50;;
22298;SDS011;11317;51.072;17.036;2023-02-28T07:26:12;13.80;;;6.47;;
22298;SDS011;11317;51.072;17.036;2023-02-28T07:28:44;11.00;;;6.18;;
22298;SDS011;11317;51.072;17.036;2023-02-28T07:31:11;13.68;;;6.03;;
22298;SDS011;11317;51.072;17.036;2023-02-28T07:33:39;11.43;;;6.85;;
22298;SDS011;11317;51.072;17.036;2023-02-28T07:36:06;10.15;;;6.38;;
22298;SDS011;11317;51.072;17.036;2023-02-28T07:38:40;13.75;;;5.97;;
22298;SDS011;11317;51.072;17.036;2023-02-28T07:41:06;10.68;;;5.65;;
22298;SDS011;11317;51.072;17.036;2023-02-28T07:43:33;10.10;;;5.15;;
22298;SDS011;11317;51.072;17.036;2023-02-28T07:46:06;12.98;;;6.75;;
22298;SDS011;11317;51.072;17.036;2023-02-28T07:48:34;11.98;;;6.70;;
22298;SDS011;11317;51.072;17.036;2023-02-28T07:51:00;10.90;;;6.00;;
22298;SDS011;11317;51.072;17.036;2023-02-28T07:53:27;10.88;;;6.40;;
22298;SDS011;11317;51.072;17.036;2023-02-28T07:55:55;11.98;;;6.78;;
22298;SDS011;11317;51.072;17.036;2023-02-28T07:58:26;11.35;;;6.63;;
22298;SDS011;11317;51.072;17.036;2023-02-28T08:00:52;11.93;;;7.05;;
22298;SDS011;11317;51.072;17.036;2023-02-28T08:03:19;8.48;;;6.20;;
22298;SDS011;11317;51.072;17.036;2023-02-28T08:05:46;13.75;;;6.50;;
22298;SDS011;11317;51.072;17.036;2023-02-28T08:08:13;9.48;;;6.35;;
22298;SDS011;11317;51.072;17.036;2023-02-28T08:10:39;10.07;;;6.85;;
22298;SDS011;11317;51.072;17.036;2023-02-28T08:13:05;10.00;;;5.95;;
22298;SDS011;11317;51.072;17.036;2023-02-28T08:15:31;9.48;;;5.15;;
22298;SDS011;11317;51.072;17.036;2023-02-28T08:17:57;8.35;;;5.40;;
22298;SDS011;11317;51.072;17.036;2023-02-28T08:20:24;8.27;;;5.75;;
22298;SDS011;11317;51.072;17.036;2023-02-28T08:22:50;8.80;;;6.00;;
22298;SDS011;11317;51.072;17.036;2023-02-28T08:25:16;6.70;;;5.32;;
22298;SDS011;11317;51.072;17.036;2023-02-28T08:27:42;7.75;;;5.30;;
22298;SDS011;11317;51.072;17.036;2023-02-28T08:30:12;7.90;;;4.82;;
22298;SDS011;11317;51.072;17.036;2023-02-28T08:32:39;8.50;;;4.82;;
22298;SDS011;11317;51.072;17.036;2023-02-28T08:35:06;6.45;;;4.82;;
22298;SDS011;11317;51.072;17.036;2023-02-28T08:37:34;9.02;;;4.63;;
22298;SDS011;11317;51.072;17.036;2023-02-28T08:40:00;7.05;;;5.30;;
22298;SDS011;11317;51.072;17.036;2023-02-28T08:42:26;10.43;;;5.10;;
22298;SDS011;11317;51.072;17.036;2023-02-28T08:44:52;8.85;;;5.78;;
22298;SDS011;11317;51.072;17.036;2023-02-28T08:47:18;8.50;;;5.72;;
22298;SDS011;11317;51.072;17.036;2023-02-28T08:49:44;8.52;;;5.90;;
22298;SDS011;11317;51.072;17.036;2023-02-28T08:52:11;6.57;;;4.70;;
22298;SDS011;11317;51.072;17.036;2023-02-28T08:54:37;7.95;;;6.28;;
22298;SDS011;11317;51.072;17.036;2023-02-28T08:57:03;8.57;;;5.53;;
22298;SDS011;11317;51.072;17.036;2023-02-28T08:59:29;10.48;;;6.05;;
22298;SDS011;11317;51.072;17.036;2023-02-28T09:01:55;9.48;;;5.97;;
22298;SDS011;11317;51.072;17.036;2023-02-28T09:04:21;8.13;;;5.57;;
22298;SDS011;11317;51.072;17.036;2023-02-28T09:06:47;9.15;;;5.95;;
22298;SDS011;11317;51.072;17.036;2023-02-28T09:09:14;9.90;;;5.50;;
22298;SDS011;11317;51.072;17.036;2023-02-28T09:11:40;7.57;;;5.38;;
22298;SDS011;11317;51.072;17.036;2023-02-28T09:14:06;4.97;;;3.55;;
22298;SDS011;11317;51.072;17.036;2023-02-28T09:16:32;7.63;;;4.20;;
22298;SDS011;11317;51.072;17.036;2023-02-28T09:18:59;7.65;;;4.30;;
22298;SDS011;11317;51.072;17.036;2023-02-28T09:21:25;6.07;;;4.15;;
22298;SDS011;11317;51.072;17.036;2023-02-28T09:23:52;4.97;;;3.35;;
22298;SDS011;11317;51.072;17.036;2023-02-28T09:26:19;5.68;;;3.55;;
22298;SDS011;11317;51.072;17.036;2023-02-28T09:28:47;6.72;;;4.65;;
22298;SDS011;11317;51.072;17.036;2023-02-28T09:31:14;4.50;;;3.05;;
22298;SDS011;11317;51.072;17.036;2023-02-28T09:33:44;5.18;;;3.35;;
22298;SDS011;11317;51.072;17.036;2023-02-28T09:36:10;4.22;;;2.83;;
22298;SDS011;11317;51.072;17.036;2023-02-28T09:38:36;5.60;;;3.42;;
22298;SDS011;11317;51.072;17.036;2023-02-28T09:41:03;4.43;;;3.05;;
22298;SDS011;11317;51.072;17.036;2023-02-28T09:49:00;5.07;;;3.63;;
22298;SDS011;11317;51.072;17.036;2023-02-28T09:54:13;5.95;;;3.33;;
22298;SDS011;11317;51.072;17.036;2023-02-28T10:04:53;7.22;;;3.45;;
22298;SDS011;11317;51.072;17.036;2023-02-28T10:07:47;5.40;;;3.63;;
22298;SDS011;11317;51.072;17.036;2023-02-28T10:10:32;4.80;;;3.20;;
22298;SDS011;11317;51.072;17.036;2023-02-28T10:13:04;5.10;;;3.35;;
22298;SDS011;11317;51.072;17.036;2023-02-28T10:15:41;6.03;;;3.70;;
22298;SDS011;11317;51.072;17.036;2023-02-28T10:18:10;6.43;;;4.13;;
22298;SDS011;11317;51.072;17.036;2023-02-28T10:20:39;5.78;;;4.00;;
22298;SDS011;11317;51.072;17.036;2023-02-28T10:23:20;6.18;;;4.25;;
22298;SDS011;11317;51.072;17.036;2023-02-28T10:26:00;6.20;;;4.78;;
22298;SDS011;11317;51.072;17.036;2023-02-28T10:28:35;7.95;;;4.40;;
22298;SDS011;11317;51.072;17.036;2023-02-28T10:31:01;6.57;;;4.53;;
22298;SDS011;11317;51.072;17.036;2023-02-28T10:33:34;6.00;;;4.43;;
22298;SDS011;11317;51.072;17.036;2023-02-28T10:36:01;8.05;;;4.40;;
22298;SDS011;11317;51.072;17.036;2023-02-28T10:38:35;7.82;;;4.97;;
22298;SDS011;11317;51.072;17.036;2023-02-28T10:41:10;6.10;;;4.10;;
22298;SDS011;11317;51.072;17.036;2023-02-28T10:43:40;6.65;;;4.22;;
22298;SDS011;11317;51.072;17.036;2023-02-28T10:48:37;5.95;;;4.40;;
22298;SDS011;11317;51.072;17.036;2023-02-28T10:51:11;6.60;;;3.90;;
22298;SDS011;11317;51.072;17.036;2023-02-28T10:53:45;5.60;;;4.07;;
22298;SDS011;11317;51.072;17.036;2023-02-28T10:56:20;6.55;;;4.80;;
22298;SDS011;11317;51.072;17.036;2023-02-28T11:01:41;6.70;;;4.45;;
22298;SDS011;11317;51.072;17.036;2023-02-28T11:04:17;7.45;;;4.30;;
22298;SDS011;11317;51.072;17.036;2023-02-28T11:09:47;10.25;;;4.20;;
22298;SDS011;11317;51.072;17.036;2023-02-28T11:12:20;8.65;;;4.38;;
22298;SDS011;11317;51.072;17.036;2023-02-28T11:15:02;6.47;;;4.65;;
22298;SDS011;11317;51.072;17.036;2023-02-28T11:17:31;6.53;;;4.53;;
22298;SDS011;11317;51.072;17.036;2023-02-28T11:19:59;8.57;;;4.90;;
22298;SDS011;11317;51.072;17.036;2023-02-28T11:22:29;9.98;;;4.80;;
22298;SDS011;11317;51.072;17.036;2023-02-28T11:25:02;9.35;;;4.85;;
22298;SDS011;11317;51.072;17.036;2023-02-28T11:29:59;8.15;;;5.32;;
22298;SDS011;11317;51.072;17.036;2023-02-28T11:32:29;7.50;;;4.43;;
22298;SDS011;11317;51.072;17.036;2023-02-28T11:35:14;9.85;;;4.80;;
22298;SDS011;11317;51.072;17.036;2023-02-28T11:37:47;8.40;;;4.63;;
22298;SDS011;11317;51.072;17.036;2023-02-28T11:40:17;6.55;;;4.63;;
22298;SDS011;11317;51.072;17.036;2023-02-28T11:46:00;7.50;;;4.47;;
22298;SDS011;11317;51.072;17.036;2023-02-28T11:57:23;8.93;;;4.75;;
22298;SDS011;11317;51.072;17.036;2023-02-28T12:05:31;7.88;;;4.68;;
22298;SDS011;11317;51.072;17.036;2023-02-28T12:10:43;9.43;;;5.10;;
22298;SDS011;11317;51.072;17.036;2023-02-28T12:13:21;7.28;;;4.18;;
22298;SDS011;11317;51.072;17.036;2023-02-28T12:19:03;9.07;;;4.30;;
22298;SDS011;11317;51.072;17.036;2023-02-28T12:21:50;7.35;;;4.70;;
22298;SDS011;11317;51.072;17.036;2023-02-28T12:24:54;7.63;;;4.25;;
22298;SDS011;11317;51.072;17.036;2023-02-28T12:27:33;7.38;;;4.05;;
22298;SDS011;11317;51.072;17.036;2023-02-28T12:32:54;8.95;;;5.00;;
22298;SDS011;11317;51.072;17.036;2023-02-28T12:35:49;8.70;;;4.65;;
22298;SDS011;11317;51.072;17.036;2023-02-28T12:38:24;6.68;;;4.25;;
22298;SDS011;11317;51.072;17.036;2023-02-28T12:40:55;10.10;;;5.25;;
22298;SDS011;11317;51.072;17.036;2023-02-28T12:43:27;11.68;;;4.80;;
22298;SDS011;11317;51.072;17.036;2023-02-28T12:46:00;10.13;;;4.90;;
22298;SDS011;11317;51.072;17.036;2023-02-28T12:48:40;10.55;;;5.10;;
22298;SDS011;11317;51.072;17.036;2023-02-28T12:51:11;9.70;;;4.38;;
22298;SDS011;11317;51.072;17.036;2023-02-28T12:58:54;13.43;;;5.43;;
22298;SDS011;11317;51.072;17.036;2023-02-28T13:07:24;9.27;;;4.85;;
22298;SDS011;11317;51.072;17.036;2023-02-28T13:10:14;12.00;;;5.35;;
22298;SDS011;11317;51.072;17.036;2023-02-28T13:12:50;10.10;;;5.00;;
22298;SDS011;11317;51.072;17.036;2023-02-28T13:15:25;10.57;;;5.10;;
22298;SDS011;11317;51.072;17.036;2023-02-28T13:17:57;8.27;;;5.43;;
22298;SDS011;11317;51.072;17.036;2023-02-28T13:20:37;13.00;;;5.70;;
22298;SDS011;11317;51.072;17.036;2023-02-28T13:26:11;10.80;;;5.78;;
22298;SDS011;11317;51.072;17.036;2023-02-28T13:31:31;11.82;;;5.45;;
22298;SDS011;11317;51.072;17.036;2023-02-28T13:34:05;9.63;;;5.32;;
22298;SDS011;11317;51.072;17.036;2023-02-28T13:36:38;12.68;;;5.03;;
22298;SDS011;11317;51.072;17.036;2023-02-28T13:47:41;11.93;;;5.80;;
22298;SDS011;11317;51.072;17.036;2023-02-28T13:50:23;9.88;;;5.22;;
22298;SDS011;11317;51.072;17.036;2023-02-28T13:55:49;8.90;;;4.93;;
22298;SDS011;11317;51.072;17.036;2023-02-28T14:06:31;13.20;;;5.65;;
22298;SDS011;11317;51.072;17.036;2023-02-28T14:11:26;12.25;;;5.80;;
22298;SDS011;11317;51.072;17.036;2023-02-28T14:16:59;12.35;;;5.57;;
22298;SDS011;11317;51.072;17.036;2023-02-28T14:19:29;10.82;;;6.30;;
22298;SDS011;11317;51.072;17.036;2023-02-28T14:22:01;9.80;;;5.57;;
22298;SDS011;11317;51.072;17.036;2023-02-28T14:37:20;13.75;;;5.70;;
22298;SDS011;11317;51.072;17.036;2023-02-28T14:45:20;11.43;;;6.10;;
22298;SDS011;11317;51.072;17.036;2023-02-28T14:47:47;12.57;;;6.95;;
22298;SDS011;11317;51.072;17.036;2023-02-28T14:50:22;14.63;;;6.75;;
22298;SDS011;11317;51.072;17.036;2023-02-28T14:52:59;15.27;;;6.78;;
22298;SDS011;11317;51.072;17.036;2023-02-28T14:55:28;20.05;;;6.50;;
22298;SDS011;11317;51.072;17.036;2023-02-28T14:57:59;14.23;;;6.35;;
22298;SDS011;11317;51.072;17.036;2023-02-28T15:00:34;13.18;;;6.65;;
22298;SDS011;11317;51.072;17.036;2023-02-28T15:04:05;16.27;;;7.03;;
22298;SDS011;11317;51.072;17.036;2023-02-28T15:06:03;12.55;;;6.57;;
22298;SDS011;11317;51.072;17.036;2023-02-28T15:08:43;10.70;;;5.97;;
22298;SDS011;11317;51.072;17.036;2023-02-28T15:13:48;16.38;;;6.72;;
22298;SDS011;11317;51.072;17.036;2023-02-28T15:18:46;12.65;;;6.32;;
22298;SDS011;11317;51.072;17.036;2023-02-28T15:21:21;15.48;;;7.03;;
22298;SDS011;11317;51.072;17.036;2023-02-28T15:23:54;14.57;;;6.85;;
22298;SDS011;11317;51.072;17.036;2023-02-28T15:26:29;13.98;;;6.60;;
22298;SDS011;11317;51.072;17.036;2023-02-28T15:28:59;15.43;;;5.93;;
22298;SDS011;11317;51.072;17.036;2023-02-28T15:31:48;11.57;;;5.90;;
22298;SDS011;11317;51.072;17.036;2023-02-28T15:34:18;11.82;;;6.47;;
22298;SDS011;11317;51.072;17.036;2023-02-28T15:36:47;13.40;;;6.22;;
22298;SDS011;11317;51.072;17.036;2023-02-28T15:39:21;14.50;;;6.03;;
22298;SDS011;11317;51.072;17.036;2023-02-28T15:42:16;12.20;;;6.05;;
22298;SDS011;11317;51.072;17.036;2023-02-28T15:44:44;13.88;;;6.13;;
22298;SDS011;11317;51.072;17.036;2023-02-28T15:47:21;14.85;;;5.97;;
22298;SDS011;11317;51.072;17.036;2023-02-28T15:49:50;9.95;;;5.82;;
22298;SDS011;11317;51.072;17.036;2023-02-28T15:52:19;11.18;;;5.93;;
22298;SDS011;11317;51.072;17.036;2023-02-28T15:55:21;16.85;;;6.22;;
22298;SDS011;11317;51.072;17.036;2023-02-28T15:57:54;11.43;;;5.60;;
22298;SDS011;11317;51.072;17.036;2023-02-28T16:00:25;10.48;;;5.50;;
22298;SDS011;11317;51.072;17.036;2023-02-28T16:02:52;12.60;;;5.72;;
22298;SDS011;11317;51.072;17.036;2023-02-28T16:07:53;9.85;;;5.15;;
22298;SDS011;11317;51.072;17.036;2023-02-28T16:10:38;11.50;;;5.32;;
22298;SDS011;11317;51.072;17.036;2023-02-28T16:13:05;16.70;;;5.72;;
22298;SDS011;11317;51.072;17.036;2023-02-28T16:15:33;12.88;;;5.82;;
22298;SDS011;11317;51.072;17.036;2023-02-28T16:18:07;13.55;;;5.78;;
22298;SDS011;11317;51.072;17.036;2023-02-28T16:20:35;12.80;;;5.60;;
22298;SDS011;11317;51.072;17.036;2023-02-28T16:23:01;14.32;;;5.95;;
22298;SDS011;11317;51.072;17.036;2023-02-28T16:25:35;10.52;;;4.60;;
22298;SDS011;11317;51.072;17.036;2023-02-28T16:28:02;16.60;;;5.47;;
22298;SDS011;11317;51.072;17.036;2023-02-28T16:30:29;13.45;;;5.30;;
22298;SDS011;11317;51.072;17.036;2023-02-28T16:32:58;8.85;;;4.85;;
22298;SDS011;11317;51.072;17.036;2023-02-28T16:35:24;15.00;;;5.40;;
22298;SDS011;11317;51.072;17.036;2023-02-28T16:37:51;11.73;;;5.18;;
22298;SDS011;11317;51.072;17.036;2023-02-28T16:40:18;14.48;;;5.95;;
22298;SDS011;11317;51.072;17.036;2023-02-28T16:42:51;14.63;;;6.57;;
22298;SDS011;11317;51.072;17.036;2023-02-28T16:45:26;11.90;;;5.00;;
22298;SDS011;11317;51.072;17.036;2023-02-28T16:47:53;12.20;;;4.93;;
22298;SDS011;11317;51.072;17.036;2023-02-28T16:50:29;8.88;;;4.60;;
22298;SDS011;11317;51.072;17.036;2023-02-28T16:52:57;10.82;;;5.85;;
22298;SDS011;11317;51.072;17.036;2023-02-28T16:55:24;10.73;;;5.85;;
22298;SDS011;11317;51.072;17.036;2023-02-28T16:57:51;16.00;;;6.82;;
22298;SDS011;11317;51.072;17.036;2023-02-28T17:00:19;14.57;;;7.00;;
22298;SDS011;11317;51.072;17.036;2023-02-28T17:02:45;17.70;;;7.13;;
22298;SDS011;11317;51.072;17.036;2023-02-28T17:05:12;15.10;;;7.07;;
22298;SDS011;11317;51.072;17.036;2023-02-28T17:07:38;13.20;;;6.85;;
22298;SDS011;11317;51.072;17.036;2023-02-28T17:12:45;14.02;;;6.82;;
22298;SDS011;11317;51.072;17.036;2023-02-28T17:15:12;14.35;;;7.20;;
22298;SDS011;11317;51.072;17.036;2023-02-28T17:17:38;12.35;;;7.15;;
22298;SDS011;11317;51.072;17.036;2023-02-28T17:20:05;11.75;;;7.30;;
22298;SDS011;11317;51.072;17.036;2023-02-28T17:22:32;14.20;;;7.38;;
22298;SDS011;11317;51.072;17.036;2023-02-28T17:24:58;13.65;;;6.47;;